createdAt,value
2019-01-30T00:01:43.194Z,61.90
2019-01-30T00:04:11.194Z,62.30
2019-01-30T00:06:39.337Z,60.90
2019-01-30T00:09:09.275Z,61.40
2019-01-30T00:11:38.245Z,61.10
2019-01-30T00:14:06.513Z,61.70
2019-01-30T00:16:34.533Z,61.00
2019-01-30T00:19:03.076Z,63.20
2019-01-30T00:21:31.085Z,60.20
2019-01-30T00:24:00.083Z,60.80
2019-01-30T00:26:28.440Z,62.30
2019-01-30T00:28:56.739Z,62.60
2019-01-30T00:31:24.883Z,60.20
2019-01-30T00:33:52.943Z,59.60
2019-01-30T00:36:21.346Z,61.70
2019-01-30T00:38:49.602Z,59.70
2019-01-30T00:41:17.586Z,60.20
2019-01-30T00:43:45.583Z,60.30
2019-01-30T00:46:13.613Z,60.70
2019-01-30T00:48:41.731Z,61.90
2019-01-30T00:51:09.772Z,59.90
2019-01-30T00:53:37.771Z,59.70
2019-01-30T00:56:05.801Z,61.40
2019-01-30T00:58:33.886Z,60.10
2019-01-30T01:01:02.665Z,62.00
2019-01-30T01:03:30.772Z,61.20
2019-01-30T01:05:58.738Z,60.40
2019-01-30T01:08:26.980Z,62.50
2019-01-30T01:10:54.932Z,60.00
2019-01-30T01:13:23.056Z,60.00
2019-01-30T01:15:51.034Z,61.30
2019-01-30T01:18:21.484Z,59.80
2019-01-30T01:20:48.938Z,60.20
2019-01-30T01:23:17.163Z,61.60
2019-01-30T01:25:45.439Z,61.00
2019-01-30T01:28:13.483Z,59.90
2019-01-30T01:30:41.703Z,60.50
2019-01-30T01:33:09.665Z,60.80
2019-01-30T01:35:37.738Z,62.30
2019-01-30T01:38:06.307Z,60.90
2019-01-30T01:40:34.255Z,61.30
2019-01-30T01:43:02.523Z,61.50
2019-01-30T01:45:30.570Z,59.30
2019-01-30T01:47:58.620Z,59.00
2019-01-30T01:50:26.646Z,59.90
2019-01-30T01:52:54.766Z,58.90
2019-01-30T01:55:22.743Z,61.10
2019-01-30T01:57:50.698Z,60.80
2019-01-30T02:00:20.167Z,58.70
2019-01-30T02:02:48.200Z,58.30
2019-01-30T02:05:19.213Z,57.70
2019-01-30T02:07:47.347Z,58.40
2019-01-30T02:10:18.084Z,58.50
2019-01-30T02:12:46.118Z,58.00
2019-01-30T02:15:17.109Z,58.10
2019-01-30T02:17:45.203Z,56.60
2019-01-30T02:20:16.924Z,57.90
2019-01-30T02:22:44.937Z,57.50
2019-01-30T02:25:12.970Z,56.80
2019-01-30T02:27:41.191Z,56.70
2019-01-30T02:30:27.313Z,56.70
2019-01-30T02:32:55.319Z,58.20
2019-01-30T02:35:23.311Z,55.80
2019-01-30T02:37:51.268Z,56.40
2019-01-30T02:40:22.449Z,56.90
2019-01-30T02:42:50.515Z,55.50
2019-01-30T02:45:21.041Z,56.10
2019-01-30T02:47:49.019Z,57.10
2019-01-30T02:50:17.806Z,57.00
2019-01-30T02:52:45.770Z,56.70
2019-01-30T02:55:14.603Z,57.70
2019-01-30T02:57:42.644Z,58.40
2019-01-30T03:00:25.417Z,56.70
2019-01-30T03:02:53.383Z,56.30
2019-01-30T03:05:21.767Z,56.30
2019-01-30T03:07:49.998Z,56.50
2019-01-30T03:10:18.189Z,56.30
2019-01-30T03:12:47.187Z,56.60
2019-01-30T03:15:15.681Z,58.60
2019-01-30T03:17:44.762Z,57.10
2019-01-30T03:20:18.676Z,56.40
2019-01-30T03:22:46.948Z,56.10
2019-01-30T03:25:15.556Z,56.30
2019-01-30T03:27:43.757Z,56.10
2019-01-30T03:30:16.007Z,56.30
2019-01-30T03:32:44.028Z,56.40
2019-01-30T03:35:12.281Z,56.10
2019-01-30T03:37:40.499Z,55.50
2019-01-30T03:40:11.179Z,55.70
2019-01-30T03:42:39.451Z,55.50
2019-01-30T03:45:08.350Z,55.70
2019-01-30T03:47:36.461Z,55.70
2019-01-30T03:50:05.293Z,56.00
2019-01-30T03:52:33.261Z,56.10
2019-01-30T03:55:01.227Z,55.70
2019-01-30T03:57:29.278Z,56.30
2019-01-30T03:59:57.671Z,55.40
2019-01-30T04:02:25.707Z,56.10
2019-01-30T04:04:53.754Z,56.10
2019-01-30T04:07:21.757Z,56.80
2019-01-30T04:09:49.739Z,56.20
2019-01-30T04:12:17.732Z,56.60
2019-01-30T04:14:45.804Z,56.90
2019-01-30T04:17:13.817Z,56.90
2019-01-30T04:19:41.834Z,57.30
2019-01-30T04:22:09.863Z,56.60
2019-01-30T04:24:37.933Z,56.20
2019-01-30T04:27:05.975Z,56.50
2019-01-30T04:29:33.996Z,56.30
2019-01-30T04:32:02.211Z,56.80
2019-01-30T04:34:30.224Z,55.30
2019-01-30T04:36:58.220Z,55.70
2019-01-30T04:39:26.190Z,55.70
2019-01-30T04:41:54.428Z,55.40
2019-01-30T04:44:22.414Z,56.70
2019-01-30T04:46:50.705Z,54.90
2019-01-30T04:49:18.684Z,54.70
2019-01-30T04:51:46.721Z,54.80
2019-01-30T04:54:14.926Z,54.80
2019-01-30T04:56:42.957Z,55.00
2019-01-30T04:59:11.049Z,54.80
2019-01-30T05:01:49.510Z,54.10
2019-01-30T05:04:10.011Z,54.60
2019-01-30T05:06:37.970Z,54.60
2019-01-30T05:09:08.308Z,54.50
2019-01-30T05:11:36.320Z,55.00
2019-01-30T05:14:04.577Z,54.60
2019-01-30T05:16:32.599Z,56.30
2019-01-30T05:19:00.807Z,54.00
2019-01-30T05:21:28.823Z,55.30
2019-01-30T05:23:56.788Z,55.30
2019-01-30T05:26:24.739Z,53.60
2019-01-30T05:28:52.815Z,54.20
2019-01-30T05:31:22.035Z,53.80
2019-01-30T05:33:50.103Z,55.90
2019-01-30T05:36:18.208Z,54.30
2019-01-30T05:38:46.610Z,53.30
2019-01-30T05:41:14.640Z,53.30
2019-01-30T05:43:42.789Z,54.40
2019-01-30T05:46:10.935Z,53.90
2019-01-30T05:48:39.034Z,55.70
2019-01-30T05:51:07.006Z,53.40
2019-01-30T05:54:06.377Z,53.10
2019-01-30T05:56:34.799Z,53.00
2019-01-30T05:59:02.813Z,53.00
2019-01-30T06:01:31.034Z,52.90
2019-01-30T06:03:59.106Z,52.40
2019-01-30T06:06:27.154Z,52.50
2019-01-30T06:08:55.303Z,53.40
2019-01-30T06:11:23.460Z,51.80
2019-01-30T06:13:51.604Z,52.00
2019-01-30T06:16:20.819Z,52.40
2019-01-30T06:18:48.857Z,52.70
2019-01-30T06:21:16.844Z,53.20
2019-01-30T06:23:44.847Z,52.30
2019-01-30T06:26:13.078Z,54.20
2019-01-30T06:28:41.333Z,51.30
2019-01-30T06:31:09.302Z,51.80
2019-01-30T06:33:37.302Z,51.30
2019-01-30T06:36:05.304Z,51.50
2019-01-30T06:38:33.767Z,51.20
2019-01-30T06:41:02.028Z,51.10
2019-01-30T06:43:29.987Z,55.00
2019-01-30T06:45:57.958Z,52.40
2019-01-30T06:48:26.227Z,52.10
2019-01-30T06:50:55.802Z,50.90
2019-01-30T06:53:23.791Z,52.30
2019-01-30T06:55:51.739Z,51.40
2019-01-30T06:58:19.687Z,49.90
2019-01-30T07:00:53.555Z,50.40
2019-01-30T07:03:21.523Z,49.50
2019-01-30T07:05:49.456Z,50.00
2019-01-30T07:08:17.561Z,48.40
2019-01-30T07:10:45.592Z,48.90
2019-01-30T07:13:13.604Z,49.20
2019-01-30T07:15:41.667Z,49.20
2019-01-30T07:18:09.680Z,50.40
2019-01-30T07:20:37.724Z,50.20
2019-01-30T07:23:05.664Z,48.40
2019-01-30T07:25:33.611Z,49.30
2019-01-30T07:30:32.614Z,49.90
2019-01-30T07:33:00.834Z,49.80
2019-01-30T07:35:28.954Z,51.20
2019-01-30T07:37:58.795Z,50.00
2019-01-30T07:40:27.430Z,51.70
2019-01-30T07:42:55.410Z,49.30
2019-01-30T07:45:25.037Z,50.80
2019-01-30T07:47:53.128Z,49.10
2019-01-30T07:50:21.195Z,48.80
2019-01-30T07:52:49.302Z,49.30
2019-01-30T07:55:17.560Z,50.00
2019-01-30T07:57:45.735Z,49.90
2019-01-30T08:00:18.043Z,51.90
2019-01-30T08:02:52.902Z,51.00
2019-01-30T08:05:15.957Z,50.10
2019-01-30T08:07:44.042Z,51.00
2019-01-30T08:10:12.518Z,51.70
2019-01-30T08:12:40.600Z,50.70
2019-01-30T08:15:12.516Z,49.30
2019-01-30T08:17:40.503Z,49.50
2019-01-30T08:20:12.735Z,50.40
2019-01-30T08:22:41.410Z,49.50
2019-01-30T08:25:10.478Z,50.30
2019-01-30T08:27:38.640Z,49.70
2019-01-30T08:30:22.514Z,50.30
2019-01-30T08:32:51.393Z,49.60
2019-01-30T08:35:21.745Z,49.50
2019-01-30T08:37:49.759Z,48.20
2019-01-30T08:40:17.715Z,48.40
2019-01-30T08:42:46.062Z,48.20
2019-01-30T08:45:21.308Z,48.60
2019-01-30T08:47:49.271Z,48.80
2019-01-30T08:50:17.453Z,47.80
2019-01-30T08:52:45.954Z,48.20
2019-01-30T08:55:13.961Z,47.60
2019-01-30T08:57:41.971Z,47.80
2019-01-30T09:00:14.670Z,46.80
2019-01-30T09:02:42.894Z,46.50
2019-01-30T09:05:10.951Z,46.40
2019-01-30T09:07:44.416Z,47.30
2019-01-30T09:10:14.788Z,46.60
2019-01-30T09:12:44.032Z,47.20
2019-01-30T09:15:17.067Z,47.00
2019-01-30T09:17:45.166Z,49.20
2019-01-30T09:20:15.713Z,49.00
2019-01-30T09:22:43.928Z,48.60
2019-01-30T09:25:15.096Z,47.00
2019-01-30T09:27:43.334Z,46.30
2019-01-30T09:30:16.176Z,47.00
2019-01-30T09:32:44.311Z,47.30
2019-01-30T09:35:13.817Z,47.10
2019-01-30T09:37:41.779Z,47.60
2019-01-30T09:40:09.801Z,48.10
2019-01-30T09:42:38.069Z,48.10
2019-01-30T09:45:09.863Z,48.70
2019-01-30T09:47:37.356Z,48.00
2019-01-30T09:50:08.183Z,49.30
2019-01-30T09:52:36.260Z,47.50
2019-01-30T09:55:06.247Z,47.00
2019-01-30T09:57:34.604Z,46.80
2019-01-30T10:00:03.507Z,48.20
2019-01-30T10:02:32.724Z,46.40
2019-01-30T10:05:00.732Z,46.30
2019-01-30T10:07:28.688Z,47.10
2019-01-30T10:09:56.659Z,46.50
2019-01-30T10:12:24.605Z,46.90
2019-01-30T10:14:52.952Z,48.20
2019-01-30T10:17:21.604Z,47.50
2019-01-30T10:19:49.573Z,47.60
2019-01-30T10:22:17.507Z,47.30
2019-01-30T10:24:45.470Z,47.00
2019-01-30T10:27:13.436Z,47.50
2019-01-30T10:29:41.409Z,47.50
2019-01-30T10:32:09.452Z,47.00
2019-01-30T10:34:37.420Z,47.00
2019-01-30T10:37:05.538Z,46.70
2019-01-30T10:39:33.938Z,46.70
2019-01-30T10:42:01.968Z,47.60
2019-01-30T10:44:29.962Z,47.20
2019-01-30T10:46:58.326Z,47.20
2019-01-30T10:49:26.298Z,47.70
2019-01-30T10:51:54.476Z,47.60
2019-01-30T10:54:22.553Z,46.80
2019-01-30T10:56:50.524Z,47.40
2019-01-30T10:59:18.631Z,47.70
2019-01-30T11:01:46.848Z,48.00
2019-01-30T11:04:14.824Z,48.30
2019-01-30T11:06:42.868Z,48.80
2019-01-30T11:09:11.139Z,48.60
2019-01-30T11:11:39.439Z,48.20
2019-01-30T11:14:07.467Z,47.70
2019-01-30T11:16:35.497Z,47.80
2019-01-30T11:19:03.822Z,47.90
2019-01-30T11:21:32.067Z,48.90
2019-01-30T11:24:01.337Z,48.90
2019-01-30T11:26:29.420Z,48.80
2019-01-30T11:28:57.643Z,47.70
2019-01-30T11:31:25.661Z,48.20
2019-01-30T11:33:53.615Z,47.70
2019-01-30T11:36:21.702Z,47.60
2019-01-30T11:38:49.730Z,47.30
2019-01-30T11:41:17.762Z,47.20
2019-01-30T11:43:45.767Z,47.30
2019-01-30T11:46:14.069Z,47.60
2019-01-30T11:48:42.018Z,47.70
2019-01-30T11:51:10.044Z,47.50
2019-01-30T11:53:38.346Z,48.10
2019-01-30T11:56:06.434Z,48.00
2019-01-30T11:58:34.531Z,47.80
2019-01-30T12:01:03.728Z,47.60
2019-01-30T12:03:31.962Z,47.30
2019-01-30T12:06:00.200Z,48.20
2019-01-30T12:08:28.379Z,48.70
2019-01-30T12:10:56.366Z,48.50
2019-01-30T12:13:24.354Z,48.30
2019-01-30T12:15:52.355Z,48.70
2019-01-30T12:18:20.356Z,48.60
2019-01-30T12:20:48.716Z,49.00
2019-01-30T12:23:17.012Z,48.80
2019-01-30T12:25:45.194Z,48.50
2019-01-30T12:28:13.433Z,48.20
2019-01-30T12:30:41.433Z,48.50
2019-01-30T12:33:09.398Z,49.30
2019-01-30T12:35:37.429Z,49.20
2019-01-30T12:38:05.589Z,48.10
2019-01-30T12:40:33.716Z,49.20
2019-01-30T12:43:01.731Z,48.60
2019-01-30T12:45:32.025Z,48.40
2019-01-30T12:48:00.055Z,48.30
2019-01-30T12:50:28.334Z,49.10
2019-01-30T12:52:56.309Z,48.90
2019-01-30T12:55:24.309Z,48.30
2019-01-30T12:57:52.281Z,48.40
2019-01-30T13:00:23.421Z,48.80
2019-01-30T13:02:51.395Z,48.80
2019-01-30T13:05:22.069Z,49.40
2019-01-30T13:07:50.403Z,49.80
2019-01-30T13:10:18.752Z,50.70
2019-01-30T13:12:46.713Z,50.90
2019-01-30T13:15:16.096Z,51.50
2019-01-30T13:17:46.692Z,52.30
2019-01-30T13:20:17.311Z,53.40
2019-01-30T13:22:45.280Z,54.50
2019-01-30T13:25:14.717Z,55.90
2019-01-30T13:27:42.735Z,55.30
2019-01-30T13:30:23.255Z,56.00
2019-01-30T13:32:51.413Z,55.90
2019-01-30T13:35:19.405Z,55.00
2019-01-30T13:37:47.438Z,55.80
2019-01-30T13:40:19.737Z,55.90
2019-01-30T13:42:47.880Z,57.10
2019-01-30T13:45:16.925Z,55.50
2019-01-30T13:47:45.095Z,54.70
2019-01-30T13:50:16.686Z,55.30
2019-01-30T13:52:44.881Z,54.70
2019-01-30T13:55:12.918Z,54.10
2019-01-30T13:57:41.178Z,52.90
2019-01-30T14:00:23.226Z,53.50
2019-01-30T14:02:51.163Z,53.30
2019-01-30T14:05:19.372Z,53.30
2019-01-30T14:07:47.517Z,51.50
2019-01-30T14:10:15.804Z,50.20
2019-01-30T14:12:43.772Z,49.10
2019-01-30T14:15:14.618Z,50.20
2019-01-30T14:17:43.204Z,53.10
2019-01-30T14:20:12.221Z,55.00
2019-01-30T14:22:40.217Z,55.90
2019-01-30T14:25:09.501Z,56.30
2019-01-30T14:27:37.593Z,57.10
2019-01-30T14:30:14.013Z,58.20
2019-01-30T14:32:42.280Z,59.10
2019-01-30T14:35:11.157Z,59.70
2019-01-30T14:37:39.402Z,60.10
2019-01-30T14:40:09.569Z,60.70
2019-01-30T14:42:37.612Z,60.30
2019-01-30T14:45:08.408Z,60.60
2019-01-30T14:47:36.438Z,60.10
2019-01-30T14:50:06.721Z,60.50
2019-01-30T14:52:34.869Z,60.50
2019-01-30T14:55:03.258Z,60.40
2019-01-30T14:57:31.421Z,62.10
2019-01-30T14:59:59.523Z,63.30
2019-01-30T15:02:27.853Z,64.20
2019-01-30T15:04:55.905Z,65.70
2019-01-30T15:07:29.062Z,66.80
2019-01-30T15:09:54.134Z,68.80
2019-01-30T15:12:22.201Z,69.70
2019-01-30T15:14:51.245Z,70.60
2019-01-30T15:17:19.361Z,71.60
2019-01-30T15:19:47.295Z,73.60
2019-01-30T15:22:15.562Z,74.10
2019-01-30T15:24:43.597Z,75.40
2019-01-30T15:27:11.871Z,75.30
2019-01-30T15:29:39.903Z,76.70
2019-01-30T15:32:09.217Z,77.40
2019-01-30T15:34:37.479Z,76.30
2019-01-30T15:37:05.533Z,77.30
2019-01-30T15:39:33.463Z,76.70
2019-01-30T15:42:01.471Z,77.50
2019-01-30T15:44:29.687Z,76.00
2019-01-30T15:46:57.800Z,75.30
2019-01-30T15:49:26.370Z,75.40
2019-01-30T15:51:56.046Z,76.40
2019-01-30T15:54:24.092Z,76.60
2019-01-30T15:56:52.053Z,75.40
2019-01-30T15:59:19.989Z,75.50
2019-01-30T16:01:47.959Z,76.20
2019-01-30T16:04:17.586Z,76.20
2019-01-30T16:06:46.346Z,75.20
2019-01-30T16:09:14.800Z,75.30
2019-01-30T16:11:43.393Z,75.40
2019-01-30T16:14:13.736Z,75.80
2019-01-30T16:16:42.153Z,75.00
2019-01-30T16:19:10.077Z,75.30
2019-01-30T16:21:38.396Z,75.20
2019-01-30T16:24:06.400Z,75.70
2019-01-30T16:26:34.564Z,75.50
2019-01-30T16:29:02.712Z,75.60
2019-01-30T16:31:30.710Z,75.00
2019-01-30T16:33:58.727Z,75.20
2019-01-30T16:36:26.805Z,76.70
2019-01-30T16:38:54.809Z,75.30
2019-01-30T16:41:22.863Z,75.40
2019-01-30T16:43:50.962Z,75.10
2019-01-30T16:46:18.956Z,75.10
2019-01-30T16:48:47.086Z,75.30
2019-01-30T16:51:15.075Z,74.10
2019-01-30T16:53:43.457Z,74.60
2019-01-30T16:56:11.456Z,73.90
2019-01-30T16:58:39.601Z,72.80
2019-01-30T17:01:07.818Z,72.70
2019-01-30T17:03:35.794Z,72.40
2019-01-30T17:06:07.429Z,71.90
2019-01-30T17:08:34.014Z,70.80
2019-01-30T17:11:02.082Z,71.60
2019-01-30T17:13:30.099Z,70.00
2019-01-30T17:15:58.056Z,68.70
2019-01-30T17:18:26.372Z,68.30
2019-01-30T17:20:54.385Z,68.50
2019-01-30T17:23:22.350Z,66.80
2019-01-30T17:25:50.509Z,65.80
2019-01-30T17:28:18.727Z,65.70
2019-01-30T17:31:10.084Z,67.00
2019-01-30T17:33:38.029Z,67.30
2019-01-30T17:36:06.051Z,65.80
2019-01-30T17:38:34.035Z,66.30
2019-01-30T17:41:02.153Z,67.10
2019-01-30T17:43:31.509Z,67.40
2019-01-30T17:46:00.052Z,68.70
2019-01-30T17:48:28.106Z,69.00
2019-01-30T17:50:56.353Z,70.00
2019-01-30T17:53:24.506Z,71.70
2019-01-30T17:55:52.746Z,72.20
2019-01-30T17:58:20.863Z,71.90
2019-01-30T18:00:52.527Z,73.00
2019-01-30T18:03:20.618Z,73.30
2019-01-30T18:05:48.751Z,72.40
2019-01-30T18:08:16.949Z,70.80
2019-01-30T18:10:45.061Z,71.40
2019-01-30T18:13:13.216Z,70.30
2019-01-30T18:15:41.202Z,70.50
2019-01-30T18:18:09.228Z,68.70
2019-01-30T18:20:37.346Z,68.70
2019-01-30T18:23:06.441Z,68.50
2019-01-30T18:25:34.769Z,65.80
2019-01-30T18:28:02.850Z,63.80
2019-01-30T18:30:30.885Z,64.20
2019-01-30T18:32:58.861Z,64.20
2019-01-30T18:35:26.901Z,64.50
2019-01-30T18:37:55.151Z,63.20
2019-01-30T18:40:23.454Z,62.90
2019-01-30T18:42:51.808Z,61.90
2019-01-30T18:45:22.222Z,61.90
2019-01-30T18:47:50.470Z,62.00
2019-01-30T18:50:21.437Z,62.50
2019-01-30T18:52:49.526Z,63.60
2019-01-30T18:55:17.488Z,62.50
2019-01-30T18:57:45.722Z,62.00
2019-01-30T19:00:29.647Z,62.00
2019-01-30T19:03:00.238Z,62.80
2019-01-30T19:05:30.321Z,63.10
2019-01-30T19:07:58.898Z,63.40
2019-01-30T19:10:27.588Z,63.50
2019-01-30T19:12:56.264Z,63.00
2019-01-30T19:15:28.608Z,63.40
2019-01-30T19:17:57.154Z,64.10
2019-01-30T19:20:32.271Z,63.70
2019-01-30T19:23:01.029Z,63.60
2019-01-30T19:25:29.904Z,63.60
2019-01-30T19:27:59.149Z,63.70
2019-01-30T19:30:30.659Z,64.50
2019-01-30T19:32:58.924Z,65.10
2019-01-30T19:35:27.742Z,65.80
2019-01-30T19:37:56.308Z,66.70
2019-01-30T19:40:24.478Z,65.70
2019-01-30T19:42:52.775Z,65.40
2019-01-30T19:45:23.560Z,65.50
2019-01-30T19:47:52.381Z,65.60
2019-01-30T19:50:25.657Z,64.90
2019-01-30T19:52:55.144Z,65.20
2019-01-30T19:55:23.269Z,65.00
2019-01-30T19:57:51.349Z,65.00
2019-01-30T20:00:28.827Z,63.60
2019-01-30T20:02:57.114Z,63.30
2019-01-30T20:05:25.226Z,61.50
2019-01-30T20:07:53.290Z,63.60
2019-01-30T20:10:27.751Z,63.00
2019-01-30T20:12:56.094Z,61.30
2019-01-30T20:15:24.180Z,61.20
2019-01-30T20:17:52.200Z,61.70
2019-01-30T20:20:21.155Z,61.60
2019-01-30T20:22:49.382Z,61.60
2019-01-30T20:25:20.363Z,61.90
2019-01-30T20:27:48.696Z,61.40
2019-01-30T20:30:19.421Z,61.00
2019-01-30T20:32:47.706Z,59.30
2019-01-30T20:35:15.802Z,59.20
2019-01-30T20:37:43.900Z,59.80
2019-01-30T20:40:19.145Z,60.20
2019-01-30T20:42:47.295Z,60.50
2019-01-30T20:45:15.675Z,60.10
2019-01-30T20:47:43.635Z,60.40
2019-01-30T20:50:15.302Z,60.70
2019-01-30T20:52:43.582Z,60.60
2019-01-30T20:55:11.812Z,60.80
2019-01-30T20:57:40.010Z,60.50
2019-01-30T21:00:14.370Z,60.20
2019-01-30T21:02:42.370Z,60.40
2019-01-30T21:05:12.030Z,60.40
2019-01-30T21:07:40.193Z,59.90
2019-01-30T21:10:13.321Z,60.70
2019-01-30T21:12:42.170Z,61.10
2019-01-30T21:15:11.918Z,61.10
2019-01-30T21:17:40.189Z,61.40
2019-01-30T21:20:08.344Z,61.80
2019-01-30T21:22:36.456Z,62.90
2019-01-30T21:25:08.410Z,62.70
2019-01-30T21:27:36.403Z,62.00
2019-01-30T21:30:06.019Z,62.60
2019-01-30T21:32:34.023Z,63.00
2019-01-30T21:35:02.051Z,62.80
2019-01-30T21:37:30.130Z,63.50
2019-01-30T21:39:58.986Z,64.40
2019-01-30T21:42:27.166Z,63.60
2019-01-30T21:44:55.817Z,64.40
2019-01-30T21:47:23.849Z,63.60
2019-01-30T21:49:52.160Z,64.00
2019-01-30T21:52:20.161Z,64.70
2019-01-30T21:54:48.376Z,64.10
2019-01-30T21:57:16.633Z,64.20
2019-01-30T21:59:44.611Z,64.50
2019-01-30T22:02:12.822Z,64.80
2019-01-30T22:04:41.288Z,64.60
2019-01-30T22:07:09.783Z,64.70
2019-01-30T22:09:38.233Z,64.50
2019-01-30T22:12:06.479Z,64.20
2019-01-30T22:14:34.762Z,64.60
2019-01-30T22:17:02.896Z,63.90
2019-01-30T22:19:31.507Z,64.90
2019-01-30T22:21:59.478Z,64.00
2019-01-30T22:24:27.561Z,63.60
2019-01-30T22:26:55.643Z,63.70
2019-01-30T22:29:23.664Z,63.50
2019-01-30T22:31:51.630Z,63.30
2019-01-30T22:34:19.989Z,62.90
2019-01-30T22:36:48.232Z,62.70
2019-01-30T22:39:16.343Z,62.60
2019-01-30T22:41:44.310Z,62.50
2019-01-30T22:44:12.521Z,62.50
2019-01-30T22:46:40.747Z,62.30
2019-01-30T22:49:08.716Z,62.30
2019-01-30T22:51:36.715Z,61.80
2019-01-30T22:54:06.217Z,62.40
2019-01-30T22:56:34.325Z,62.30
2019-01-30T22:59:02.417Z,62.30
2019-01-30T23:01:45.462Z,62.30
2019-01-30T23:05:02.329Z,62.30
2019-01-30T23:08:22.958Z,61.80
2019-01-30T23:11:27.111Z,62.20
2019-01-30T23:14:24.148Z,62.30
2019-01-30T23:17:43.536Z,62.20
2019-01-30T23:20:28.576Z,62.10
2019-01-30T23:24:17.579Z,62.30
2019-01-30T23:27:12.519Z,62.60
2019-01-30T23:30:43.862Z,62.40
2019-01-30T23:34:33.985Z,62.70
2019-01-30T23:37:43.782Z,62.80
2019-01-30T23:40:43.293Z,62.80
2019-01-30T23:43:45.461Z,62.50
2019-01-30T23:46:56.704Z,62.70
2019-01-30T23:50:13.075Z,62.60
2019-01-30T23:53:50.799Z,63.20
2019-01-30T23:57:08.920Z,63.00
